Terminal Aerodrome Forecast
Issued by NWS Burlington, VT

Home | Current Version | Previous Version | Text Only | Print | Product List | Glossary On
Versions: 1 2 3 4 5 6 7 8 9 10 11 12 13 14 15 16
808
FTUS41 KBTV 242331
TAFBTV
TAF
KBTV 242331Z 2500/2524 19006KT P6SM FEW100
     FM250800 18006KT 5SM BR SKC
     FM251100 19007KT P6SM SKC
     FM251400 21011G17KT P6SM SCT150
     FM251800 28011G18KT P6SM BKN150
     FM252100 31009KT P6SM VCSH BKN080=

USA.gov is the U.S. government's official web portal to all federal, state and local government web resources and services.